Berlin Dahlem, Germany

5:20 AM CEST on August 28, 2014 (GMT +0200)
Tiergarten | Change Station
CLOSE
Current Station
Personal Weather Station
Location: Berlin, BERLIN
Elevation: 121 ft
Nearby Weather Stations

Elev 121 ft 52.52 °N, 13.32 °E | Updated 55 seconds ago

Shallow Fog
Shallow Fog
56.8 °F
Feels Like 56.8 °F
N
-
Wind Variable Wind from North

Today
High -- | Low -- °F
--% Chance of Precip.
Yesterday
High -- | Low -- °F
Precip. -- in
6:10 AM 8:04 PM
Waxing Crescent, 6% visible
Pressure 30.04 in
Visibility 6.2 miles
Clouds
Dew Point 47 °F
Humidity 74%
Rainfall -999.00 in
Snow Depth Not available.
UV Not available.
Pollen Not available.
Air Quality Not available.
Flu Activity Not available.
METAR EDDT 280220Z VRB01KT 9999 MIFG NSC 09/07 Q1017

More Conditions Fewer Conditions

Pressure 30.04 in
Visibility 6.2 miles
Clouds
Dew Point 47 °F
Humidity 74%
Rainfall -999.00 in
Snow Depth Not available.
UV Not available.
Pollen Not available.
Air Quality Not available.
Flu Activity Not available.
METAR EDDT 280220Z VRB01KT 9999 MIFG NSC 09/07 Q1017

More Conditions Fewer Conditions

10-Day Weather Forecast

Almanac

Astronomy

Aug. 28, 2014 Rise Set
Actual Time 6:10 AM CEST 8:04 PM CEST
Civil Twilight 5:34 AM CEST 8:40 PM CEST
Nautical Twilight 4:49 AM CEST 9:25 PM CEST
Astronomical Twilight 3:57 AM CEST 10:16 PM CEST
Moon 9:12 AM CEST 8:50 PM CEST
Length of Visible Light 15h 06m
Length of Day
13h 53m
Tomorrow will be 3m 55s shorter.
Waxing Crescent, 6% of the Moon is Illuminated
Aug 27
Waxing Crescent
Sep 2
First Quarter
Sep 8
Full
Sep 15
Last Quarter
Sep 24
New

Yesterday's Extremes

Country Highs Country Lows

Community

WunderPhotos

Upload Photos

1,747,891 photos uploaded!

Nearby

Snow Depth

Not available.

Earthquake Activity

City Distance Mag. Time & Date
No recent earthquake activity has been reported nearby.
Minimum magnitude displayed is 2.5.

Coastal Water Temperatures

Place Temperature
No Stations Reporting

Nearby Weather Stations